Time;durP1;ratioP1;P1;durP2;ratioP2;P2;SDS_P1;SDS_P2;PMS_P1;PMS_P2;Temp;Humidity;BMP_temperature;BMP_pressure;BME280_temperature;BME280_humidity;BME280_pressure;Samples;Min_cycle;Max_cycle;Signal;HPM_P1;HPM_P2
2022/02/12 00:00:07;;;;;;;;;;;256.90;1228.80;;;;;;5097084;28;19905;-61
2022/02/12 00:02:35;;;;;;;;;;;256.80;1228.80;;;;;;5096004;28;19911;-60
2022/02/12 00:05:04;;;;;;;;;;;256.80;1254.40;;;;;;5096517;28;20417;-60
2022/02/12 00:07:33;;;;;;;;;;;256.80;1228.80;;;;;;5096591;28;19904;-60
2022/02/12 00:10:01;;;;;;;;;;;256.80;1254.40;;;;;;5096843;28;20040;-60
2022/02/12 00:12:29;;;;;;;;;;;256.70;1254.40;;;;;;5096196;28;20343;-65
2022/02/12 00:15:01;;;;;;;;;;;256.80;1254.40;;;;;;5096383;28;19904;-61
2022/02/12 00:17:29;;;;;;;;;;;256.80;1254.40;;;;;;5096193;28;19985;-64
2022/02/12 00:19:58;;;;;;;;;;;256.70;1254.40;;;;;;5096862;28;19904;-61
2022/02/12 00:22:26;;;;;;;;;;;256.70;1254.40;;;;;;5096350;28;19957;-61
2022/02/12 00:24:55;;;;;;;;;;;256.70;1254.40;;;;;;5096212;28;19904;-60
2022/02/12 00:27:23;;;;;;;;;;;256.70;1254.40;;;;;;5096903;28;20296;-61
2022/02/12 00:29:51;;;;;;;;;;;256.70;1254.40;;;;;;5095975;28;20018;-62
2022/02/12 00:32:22;;;;;;;;;;;256.60;1254.40;;;;;;5095698;28;19919;-60
2022/02/12 00:34:51;;;;;;;;;;;256.60;1254.40;;;;;;5095924;28;20316;-61
2022/02/12 00:37:19;;;;;;;;;;;256.60;1254.40;;;;;;5095975;28;19904;-62
2022/02/12 00:39:48;;;;;;;;;;;256.60;1254.40;;;;;;5096087;28;19933;-61
2022/02/12 00:42:18;;;;;;;;;;;256.60;1254.40;;;;;;5095752;28;19904;-61
2022/02/12 00:44:44;;;;;;;;;;;256.70;1254.40;;;;;;5095738;28;19904;-60
2022/02/12 00:47:13;;;;;;;;;;;256.60;1254.40;;;;;;5095624;28;20342;-61
2022/02/12 00:49:41;;;;;;;;;;;256.60;1254.40;;;;;;5095649;28;19935;-60
2022/02/12 00:52:07;;;;;;;;;;;256.60;1254.40;;;;;;5095864;28;19927;-61
2022/02/12 00:54:37;;;;;;;;;;;256.70;1254.40;;;;;;5095806;28;20347;-61
2022/02/12 00:57:06;;;;;;;;;;;256.70;1254.40;;;;;;5095646;28;19940;-63
2022/02/12 00:59:31;;;;;;;;;;;256.60;1254.40;;;;;;5095460;28;20374;-61
2022/02/12 01:01:59;;;;;;;;;;;256.60;1254.40;;;;;;5095527;28;19904;-61
2022/02/12 01:04:28;;;;;;;;;;;256.70;1254.40;;;;;;5095111;28;19904;-61
2022/02/12 01:06:54;;;;;;;;;;;256.60;1254.40;;;;;;5095439;28;19904;-62
2022/02/12 01:09:22;;;;;;;;;;;256.60;1254.40;;;;;;5095362;28;19918;-61
2022/02/12 01:11:51;;;;;;;;;;;256.60;1254.40;;;;;;5095154;28;19927;-64
2022/02/12 01:14:19;;;;;;;;;;;256.60;1254.40;;;;;;5095347;28;19994;-65
2022/02/12 01:16:48;;;;;;;;;;;256.60;1254.40;;;;;;5095025;28;19904;-61
2022/02/12 01:19:17;;;;;;;;;;;256.60;1254.40;;;;;;5095169;28;19911;-61
2022/02/12 01:21:45;;;;;;;;;;;256.60;1254.40;;;;;;5094943;28;20002;-61
2022/02/12 01:24:14;;;;;;;;;;;256.50;1228.80;;;;;;5094926;28;19907;-64
2022/02/12 01:26:43;;;;;;;;;;;256.50;1254.40;;;;;;5095084;28;19995;-60
2022/02/12 01:29:12;;;;;;;;;;;256.50;1254.40;;;;;;5094931;28;20250;-60
2022/02/12 01:31:41;;;;;;;;;;;256.50;1254.40;;;;;;5094448;28;19916;-60
2022/02/12 01:34:10;;;;;;;;;;;256.50;1254.40;;;;;;5094925;28;20316;-60
2022/02/12 01:36:38;;;;;;;;;;;256.50;1228.80;;;;;;5094888;28;19934;-60
2022/02/12 01:39:07;;;;;;;;;;;256.40;1254.40;;;;;;5094912;28;19904;-60
2022/02/12 01:41:35;;;;;;;;;;;256.40;1228.80;;;;;;5094834;28;19938;-60
2022/02/12 01:44:08;;;;;;;;;;;256.30;1254.40;;;;;;5094798;28;20269;-60
2022/02/12 01:46:37;;;;;;;;;;;256.30;1254.40;;;;;;5094604;28;19918;-60
2022/02/12 01:49:06;;;;;;;;;;;256.30;1228.80;;;;;;5094372;28;19912;-60
2022/02/12 01:51:36;;;;;;;;;;;256.20;1254.40;;;;;;5095022;28;19904;-63
2022/02/12 01:54:04;;;;;;;;;;;256.20;1254.40;;;;;;5094471;28;19905;-62
2022/02/12 01:56:35;;;;;;;;;;;256.20;1254.40;;;;;;5094248;28;19904;-60
2022/02/12 01:59:04;;;;;;;;;;;256.20;1254.40;;;;;;5094369;28;19949;-61
2022/02/12 02:01:32;;;;;;;;;;;256.20;1228.80;;;;;;5094125;28;19911;-62
2022/02/12 02:04:01;;;;;;;;;;;256.10;1254.40;;;;;;5094393;28;19904;-61
2022/02/12 02:06:29;;;;;;;;;;;256.10;1254.40;;;;;;5094322;28;19959;-60
2022/02/12 02:09:03;;;;;;;;;;;256.00;1254.40;;;;;;5094220;28;19912;-61
2022/02/12 02:11:30;;;;;;;;;;;256.00;1254.40;;;;;;5094365;28;19907;-61
2022/02/12 02:13:58;;;;;;;;;;;256.00;1254.40;;;;;;5094526;28;19915;-62
2022/02/12 02:16:26;;;;;;;;;;;231.30;1254.40;;;;;;5094090;28;19939;-63
2022/02/12 02:18:55;;;;;;;;;;;231.30;1254.40;;;;;;5094079;28;19911;-63
2022/02/12 02:21:24;;;;;;;;;;;231.30;1254.40;;;;;;5094238;28;20315;-62
2022/02/12 02:23:53;;;;;;;;;;;231.30;1254.40;;;;;;5093589;28;19918;-61
2022/02/12 02:26:22;;;;;;;;;;;231.30;1254.40;;;;;;5094056;28;19912;-62
2022/02/12 02:28:50;;;;;;;;;;;231.30;1254.40;;;;;;5094135;28;20006;-61
2022/02/12 02:31:19;;;;;;;;;;;231.30;1254.40;;;;;;5093950;28;20046;-62
2022/02/12 02:33:47;;;;;;;;;;;231.30;1254.40;;;;;;5094015;28;19954;-61
2022/02/12 02:36:16;;;;;;;;;;;231.30;1254.40;;;;;;5094051;28;19910;-61
2022/02/12 02:38:45;;;;;;;;;;;231.20;1254.40;;;;;;5094322;28;19910;-61
2022/02/12 02:41:13;;;;;;;;;;;231.20;1280.00;;;;;;5094335;28;19938;-62
2022/02/12 02:43:42;;;;;;;;;;;231.20;1254.40;;;;;;5093913;28;19914;-62
2022/02/12 02:46:10;;;;;;;;;;;231.20;1254.40;;;;;;5094004;28;20353;-61
2022/02/12 02:48:39;;;;;;;;;;;231.20;1254.40;;;;;;5093972;28;20247;-62
2022/02/12 02:56:39;;;;;;;;;;;231.10;1280.00;;;;;;5093756;28;19993;-62
2022/02/12 02:59:08;;;;;;;;;;;231.20;1254.40;;;;;;5093858;28;19955;-62
2022/02/12 03:01:35;;;;;;;;;;;231.20;1254.40;;;;;;5093658;28;19911;-64
2022/02/12 03:04:04;;;;;;;;;;;231.20;1280.00;;;;;;5093880;28;19910;-60
2022/02/12 03:06:33;;;;;;;;;;;231.10;1280.00;;;;;;5093606;28;19911;-61
2022/02/12 03:09:02;;;;;;;;;;;231.10;1280.00;;;;;;5093468;28;20418;-62
2022/02/12 03:11:31;;;;;;;;;;;231.10;1280.00;;;;;;5093621;28;19904;-63
2022/02/12 03:13:59;;;;;;;;;;;231.10;1280.00;;;;;;5093643;28;20357;-62
2022/02/12 03:16:28;;;;;;;;;;;231.00;1280.00;;;;;;5093017;28;20261;-63
2022/02/12 03:18:56;;;;;;;;;;;231.00;1280.00;;;;;;5093557;28;19908;-62
2022/02/12 03:21:24;;;;;;;;;;;231.00;1280.00;;;;;;5093685;28;19966;-62
2022/02/12 03:23:53;;;;;;;;;;;231.00;1280.00;;;;;;5093849;28;19954;-62
2022/02/12 03:26:23;;;;;;;;;;;231.10;1280.00;;;;;;5093637;28;19908;-63
2022/02/12 03:28:51;;;;;;;;;;;231.00;1280.00;;;;;;5094025;28;19912;-62
2022/02/12 03:31:20;;;;;;;;;;;231.00;1305.60;;;;;;5093306;28;19908;-63
2022/02/12 03:33:48;;;;;;;;;;;231.00;1280.00;;;;;;5093352;28;19915;-63
2022/02/12 03:36:17;;;;;;;;;;;231.00;1305.60;;;;;;5094470;28;19947;-61
2022/02/12 03:38:48;;;;;;;;;;;231.00;1280.00;;;;;;5096827;28;19911;-61
2022/02/12 03:41:16;;;;;;;;;;;231.00;1305.60;;;;;;5096952;28;19903;-63
2022/02/12 03:43:45;;;;;;;;;;;231.00;1305.60;;;;;;5097102;28;19911;-62
2022/02/12 03:46:14;;;;;;;;;;;230.90;1305.60;;;;;;5096746;28;20432;-63
2022/02/12 03:48:42;;;;;;;;;;;231.00;1305.60;;;;;;5096873;28;19919;-61
2022/02/12 03:51:11;;;;;;;;;;;231.00;1305.60;;;;;;5096954;28;19926;-62
2022/02/12 03:53:40;;;;;;;;;;;230.90;1305.60;;;;;;5096753;28;19911;-62
2022/02/12 03:56:08;;;;;;;;;;;231.00;1305.60;;;;;;5096595;28;19912;-63
2022/02/12 03:58:36;;;;;;;;;;;230.90;1305.60;;;;;;5096760;28;19911;-62
2022/02/12 04:01:02;;;;;;;;;;;230.90;1305.60;;;;;;5096768;28;19919;-61
2022/02/12 04:03:31;;;;;;;;;;;230.90;1305.60;;;;;;5096606;28;20310;-61
2022/02/12 04:05:59;;;;;;;;;;;230.80;1305.60;;;;;;5096666;28;19908;-61
2022/02/12 04:08:25;;;;;;;;;;;230.80;1305.60;;;;;;5096374;28;19908;-62
2022/02/12 04:10:54;;;;;;;;;;;230.80;1331.20;;;;;;5096529;28;19995;-61
2022/02/12 04:13:22;;;;;;;;;;;230.70;1331.20;;;;;;5096967;28;20402;-61
2022/02/12 04:15:48;;;;;;;;;;;230.70;1331.20;;;;;;5096319;28;19913;-62
2022/02/12 04:18:16;;;;;;;;;;;230.70;1331.20;;;;;;5096616;28;19912;-63
2022/02/12 04:20:42;;;;;;;;;;;230.70;1331.20;;;;;;5096200;28;19911;-61
2022/02/12 04:23:12;;;;;;;;;;;230.60;1331.20;;;;;;5096344;28;19904;-61
2022/02/12 04:25:40;;;;;;;;;;;230.50;1356.80;;;;;;5096039;28;19911;-61
2022/02/12 04:28:10;;;;;;;;;;;230.50;1356.80;;;;;;5096129;28;19949;-62
2022/02/12 04:30:39;;;;;;;;;;;230.50;1382.40;;;;;;5095948;28;20265;-62
2022/02/12 04:33:08;;;;;;;;;;;230.40;1382.40;;;;;;5095856;28;19916;-61
2022/02/12 04:35:37;;;;;;;;;;;205.70;1382.40;;;;;;5096334;28;19908;-61
2022/02/12 04:38:03;;;;;;;;;;;205.70;1382.40;;;;;;5096035;28;19908;-63
2022/02/12 04:40:32;;;;;;;;;;;205.70;1356.80;;;;;;5096232;28;19991;-60
2022/02/12 04:43:00;;;;;;;;;;;205.70;1356.80;;;;;;5095843;28;19927;-60
2022/02/12 04:45:26;;;;;;;;;;;205.60;1382.40;;;;;;5095836;28;19911;-62
2022/02/12 04:47:55;;;;;;;;;;;205.70;1382.40;;;;;;5095191;28;19904;-60
2022/02/12 04:50:23;;;;;;;;;;;205.50;1382.40;;;;;;5095612;28;20354;-61
2022/02/12 04:52:52;;;;;;;;;;;205.50;1382.40;;;;;;5095719;28;19908;-60
2022/02/12 04:55:21;;;;;;;;;;;205.50;1382.40;;;;;;5095570;28;19908;-60
2022/02/12 04:57:50;;;;;;;;;;;205.50;1382.40;;;;;;5095537;28;19911;-60
2022/02/12 05:00:18;;;;;;;;;;;205.50;1382.40;;;;;;5095546;28;19911;-61
2022/02/12 05:02:46;;;;;;;;;;;205.50;1382.40;;;;;;5095366;28;20281;-62
2022/02/12 05:05:14;;;;;;;;;;;205.40;1382.40;;;;;;5095469;28;19904;-61
2022/02/12 05:07:43;;;;;;;;;;;205.40;1382.40;;;;;;5095515;28;19911;-61
2022/02/12 05:10:09;;;;;;;;;;;205.30;1382.40;;;;;;5095564;28;20417;-62
2022/02/12 05:12:37;;;;;;;;;;;205.20;1408.00;;;;;;5095160;28;19954;-63
2022/02/12 05:15:07;;;;;;;;;;;205.20;1408.00;;;;;;5095447;28;19995;-61
2022/02/12 05:17:35;;;;;;;;;;;205.10;1408.00;;;;;;5095007;28;19998;-62
2022/02/12 05:20:04;;;;;;;;;;;205.10;1408.00;;;;;;5095260;28;19955;-61
2022/02/12 05:22:33;;;;;;;;;;;205.20;1408.00;;;;;;5095181;28;19904;-63
2022/02/12 05:25:02;;;;;;;;;;;205.10;1408.00;;;;;;5094874;28;19986;-61
2022/02/12 05:27:30;;;;;;;;;;;205.10;1433.60;;;;;;5094753;28;19904;-63
2022/02/12 05:29:59;;;;;;;;;;;205.10;1408.00;;;;;;5094847;28;19912;-62
2022/02/12 05:32:27;;;;;;;;;;;205.00;1408.00;;;;;;5094743;28;19916;-61
2022/02/12 05:34:58;;;;;;;;;;;205.00;1433.60;;;;;;5094895;28;20357;-63
2022/02/12 05:37:26;;;;;;;;;;;205.00;1408.00;;;;;;5094655;28;19904;-63
2022/02/12 05:39:55;;;;;;;;;;;204.90;1433.60;;;;;;5095210;28;19939;-61
2022/02/12 05:42:23;;;;;;;;;;;204.90;1433.60;;;;;;5095276;28;19904;-62
2022/02/12 05:44:53;;;;;;;;;;;204.80;1433.60;;;;;;5094784;28;19915;-63
2022/02/12 05:47:21;;;;;;;;;;;204.80;1433.60;;;;;;5094478;28;19904;-61
2022/02/12 05:49:50;;;;;;;;;;;204.90;1433.60;;;;;;5094496;28;20309;-63
2022/02/12 05:52:18;;;;;;;;;;;204.80;1433.60;;;;;;5094645;28;19904;-62
2022/02/12 05:54:46;;;;;;;;;;;204.80;1433.60;;;;;;5095004;28;19904;-61
2022/02/12 05:57:15;;;;;;;;;;;204.80;1433.60;;;;;;5094264;28;20326;-61
2022/02/12 05:59:43;;;;;;;;;;;204.80;1433.60;;;;;;5093547;28;19904;-63
2022/02/12 06:02:12;;;;;;;;;;;180.10;1459.20;;;;;;5094443;28;19915;-61
2022/02/12 06:04:40;;;;;;;;;;;180.10;1433.60;;;;;;5094401;28;19915;-64
2022/02/12 06:07:10;;;;;;;;;;;180.10;1459.20;;;;;;5094502;28;19910;-64
2022/02/12 06:09:36;;;;;;;;;;;180.10;1459.20;;;;;;5094378;28;19938;-60
2022/02/12 06:12:05;;;;;;;;;;;180.10;1433.60;;;;;;5094453;28;20354;-61
2022/02/12 06:14:34;;;;;;;;;;;180.00;1459.20;;;;;;5094415;28;19950;-61
2022/02/12 06:17:02;;;;;;;;;;;180.10;1459.20;;;;;;5093954;28;20384;-63
2022/02/12 06:19:31;;;;;;;;;;;180.00;1459.20;;;;;;5075796;28;20342;-63
2022/02/12 06:21:59;;;;;;;;;;;180.00;1459.20;;;;;;5094309;28;19904;-63
2022/02/12 06:24:28;;;;;;;;;;;180.00;1459.20;;;;;;5094031;28;19912;-61
2022/02/12 06:26:57;;;;;;;;;;;180.00;1459.20;;;;;;5094036;28;19954;-61
2022/02/12 06:29:26;;;;;;;;;;;180.00;1459.20;;;;;;5094132;28;19911;-61
2022/02/12 06:31:54;;;;;;;;;;;179.90;1459.20;;;;;;5093964;28;19923;-61
2022/02/12 06:34:23;;;;;;;;;;;179.90;1459.20;;;;;;5094261;28;20568;-62
2022/02/12 06:36:51;;;;;;;;;;;179.90;1484.80;;;;;;5094094;28;19908;-63
2022/02/12 06:39:20;;;;;;;;;;;179.90;1459.20;;;;;;5094130;28;19962;-61
2022/02/12 06:41:49;;;;;;;;;;;180.00;1459.20;;;;;;5094114;28;19904;-63
2022/02/12 06:44:17;;;;;;;;;;;179.90;1484.80;;;;;;5094028;28;20304;-62
2022/02/12 06:46:45;;;;;;;;;;;179.90;1459.20;;;;;;5093733;28;19904;-60
2022/02/12 06:49:15;;;;;;;;;;;179.90;1484.80;;;;;;5094035;28;20254;-61
2022/02/12 06:51:40;;;;;;;;;;;179.90;1484.80;;;;;;5094081;28;19995;-61
2022/02/12 06:54:09;;;;;;;;;;;179.90;1484.80;;;;;;5093914;28;19947;-61
2022/02/12 06:56:35;;;;;;;;;;;179.90;1484.80;;;;;;5093791;28;19904;-64
2022/02/12 06:59:00;;;;;;;;;;;179.80;1484.80;;;;;;5093702;28;20357;-64
2022/02/12 07:01:26;;;;;;;;;;;179.80;1510.40;;;;;;5101443;28;20380;-62
2022/02/12 07:03:52;;;;;;;;;;;179.90;1484.80;;;;;;5103568;28;20460;-61
2022/02/12 07:06:18;;;;;;;;;;;179.90;1484.80;;;;;;5102214;28;19986;-62
2022/02/12 07:08:43;;;;;;;;;;;180.00;1484.80;;;;;;5099424;28;19998;-62
2022/02/12 07:11:09;;;;;;;;;;;179.90;1484.80;;;;;;5105730;28;19914;-62
2022/02/12 07:13:35;;;;;;;;;;;179.90;1484.80;;;;;;5107761;28;19908;-62
2022/02/12 07:16:02;;;;;;;;;;;180.00;1484.80;;;;;;5105748;28;20380;-61
2022/02/12 07:18:28;;;;;;;;;;;179.90;1484.80;;;;;;5107418;28;19995;-61
2022/02/12 07:20:54;;;;;;;;;;;179.90;1510.40;;;;;;5107160;28;19928;-61
2022/02/12 07:23:19;;;;;;;;;;;179.90;1484.80;;;;;;5105920;28;19962;-60
2022/02/12 07:25:48;;;;;;;;;;;179.90;1484.80;;;;;;5097333;28;19904;-61
2022/02/12 07:28:13;;;;;;;;;;;179.90;1510.40;;;;;;5101749;28;19955;-61
2022/02/12 07:30:41;;;;;;;;;;;179.90;1510.40;;;;;;5106200;28;20423;-61
2022/02/12 07:33:07;;;;;;;;;;;180.00;1510.40;;;;;;5103402;28;19916;-61
2022/02/12 07:35:33;;;;;;;;;;;180.00;1510.40;;;;;;5097132;28;19957;-61
2022/02/12 07:37:59;;;;;;;;;;;180.00;1484.80;;;;;;5096563;28;19904;-61
2022/02/12 07:40:27;;;;;;;;;;;180.10;1510.40;;;;;;5097071;28;19904;-61
2022/02/12 07:42:54;;;;;;;;;;;180.10;1510.40;;;;;;5096970;28;19946;-61
2022/02/12 07:45:20;;;;;;;;;;;180.10;1510.40;;;;;;5097003;28;19911;-61
2022/02/12 07:47:46;;;;;;;;;;;180.10;1510.40;;;;;;5096674;28;20358;-61
2022/02/12 07:50:16;;;;;;;;;;;180.10;1510.40;;;;;;5096719;28;20362;-62
2022/02/12 07:52:45;;;;;;;;;;;180.10;1510.40;;;;;;5096879;28;19904;-60
2022/02/12 07:55:14;;;;;;;;;;;204.80;1510.40;;;;;;5096818;28;19911;-62
2022/02/12 07:57:43;;;;;;;;;;;204.80;1510.40;;;;;;5096113;28;20062;-59
2022/02/12 08:00:13;;;;;;;;;;;204.80;1484.80;;;;;;5096712;28;20006;-58
2022/02/12 08:02:39;;;;;;;;;;;204.90;1536.00;;;;;;5096433;28;20365;-59
2022/02/12 08:05:07;;;;;;;;;;;204.90;1536.00;;;;;;5096920;28;20421;-59
2022/02/12 08:07:38;;;;;;;;;;;204.90;1536.00;;;;;;5096511;28;19966;-59
2022/02/12 08:12:55;;;;;;;;;;;205.00;1536.00;;;;;;5096540;28;20050;-60
2022/02/12 08:15:24;;;;;;;;;;;205.10;1510.40;;;;;;5096510;28;19903;-59
2022/02/12 08:17:49;;;;;;;;;;;205.10;1510.40;;;;;;5096263;28;19908;-60
2022/02/12 08:20:18;;;;;;;;;;;205.20;1510.40;;;;;;5096259;28;19910;-59
2022/02/12 08:22:47;;;;;;;;;;;205.20;1536.00;;;;;;5095506;28;19910;-59
2022/02/12 08:25:14;;;;;;;;;;;205.20;1510.40;;;;;;5096452;28;19904;-59
2022/02/12 08:27:42;;;;;;;;;;;205.40;1484.80;;;;;;5096152;28;19999;-59
2022/02/12 08:30:11;;;;;;;;;;;205.40;1484.80;;;;;;5095881;28;20349;-59
2022/02/12 08:32:41;;;;;;;;;;;205.40;1484.80;;;;;;5095262;28;19916;-59
2022/02/12 08:35:10;;;;;;;;;;;205.50;1484.80;;;;;;5095972;28;20277;-59
2022/02/12 08:37:39;;;;;;;;;;;205.60;1484.80;;;;;;5077732;28;20328;-60
2022/02/12 08:40:09;;;;;;;;;;;205.70;1484.80;;;;;;5096232;28;20399;-60
2022/02/12 08:42:35;;;;;;;;;;;230.40;1484.80;;;;;;5095683;28;20354;-59
2022/02/12 08:45:05;;;;;;;;;;;230.50;1459.20;;;;;;5095640;28;19904;-59
2022/02/12 08:47:33;;;;;;;;;;;230.60;1459.20;;;;;;5095652;28;19904;-60
2022/02/12 08:49:59;;;;;;;;;;;230.60;1459.20;;;;;;5095752;28;19915;-59
2022/02/12 08:52:29;;;;;;;;;;;230.80;1433.60;;;;;;5095788;28;19948;-59
2022/02/12 08:54:57;;;;;;;;;;;230.80;1433.60;;;;;;5095604;28;19911;-59
2022/02/12 08:57:26;;;;;;;;;;;231.00;1433.60;;;;;;5095600;28;19904;-59
2022/02/12 08:59:54;;;;;;;;;;;231.00;1408.00;;;;;;5096074;28;19904;-59
2022/02/12 09:02:22;;;;;;;;;;;231.10;1408.00;;;;;;5095350;28;19908;-59
2022/02/12 09:04:51;;;;;;;;;;;231.20;1382.40;;;;;;5095490;28;20255;-59
2022/02/12 09:07:20;;;;;;;;;;;231.30;1382.40;;;;;;5095342;28;19904;-59
2022/02/12 09:09:49;;;;;;;;;;;256.00;1356.80;;;;;;5095436;28;19916;-59
2022/02/12 09:12:17;;;;;;;;;;;256.10;1356.80;;;;;;5095256;28;20342;-59
2022/02/12 09:14:46;;;;;;;;;;;256.20;1356.80;;;;;;5095170;28;20358;-59
2022/02/12 09:17:14;;;;;;;;;;;256.30;1356.80;;;;;;5095028;28;19911;-59
2022/02/12 09:19:43;;;;;;;;;;;256.40;1331.20;;;;;;5095111;28;19912;-59
2022/02/12 09:22:10;;;;;;;;;;;256.50;1331.20;;;;;;5094548;28;19947;-59
2022/02/12 09:24:36;;;;;;;;;;;256.50;1305.60;;;;;;5094331;28;19904;-59
2022/02/12 09:27:01;;;;;;;;;;;256.60;1305.60;;;;;;5094900;28;19904;-59
2022/02/12 09:29:28;;;;;;;;;;;256.60;1305.60;;;;;;5083577;28;19912;-59
2022/02/12 09:31:57;;;;;;;;;;;256.70;1280.00;;;;;;5105532;28;19919;-59
2022/02/12 09:34:25;;;;;;;;;;;256.70;1280.00;;;;;;5115183;28;19932;-63
2022/02/12 09:36:54;;;;;;;;;;;256.70;1280.00;;;;;;5115310;28;20262;-61
2022/02/12 09:39:23;;;;;;;;;;;256.80;1280.00;;;;;;5114995;28;20373;-60
2022/02/12 09:41:48;;;;;;;;;;;256.90;1280.00;;;;;;5114869;28;19999;-59
2022/02/12 09:44:14;;;;;;;;;;;281.60;1356.80;;;;;;5115175;28;19939;-59
2022/02/12 09:46:58;;;;;;;;;;;281.60;1305.60;;;;;;5114812;28;20230;-59
2022/02/12 09:49:24;;;;;;;;;;;281.60;1305.60;;;;;;5114829;28;20358;-59
2022/02/12 09:51:51;;;;;;;;;;;281.70;1280.00;;;;;;5115032;28;19946;-59
2022/02/12 09:54:16;;;;;;;;;;;281.70;1280.00;;;;;;5115299;28;19904;-59
2022/02/12 09:56:42;;;;;;;;;;;281.70;1280.00;;;;;;5114913;28;20322;-59
2022/02/12 09:59:09;;;;;;;;;;;281.70;1305.60;;;;;;5114914;28;19910;-59
2022/02/12 10:01:39;;;;;;;;;;;281.80;1280.00;;;;;;5114990;28;19904;-59
2022/02/12 10:04:12;;;;;;;;;;;281.80;1280.00;;;;;;5096535;28;20006;-59
2022/02/12 10:06:41;;;;;;;;;;;281.90;1305.60;;;;;;5094527;28;19903;-59
2022/02/12 10:09:07;;;;;;;;;;;281.90;1305.60;;;;;;5094415;28;19944;-59
2022/02/12 10:11:43;;;;;;;;;;;281.90;1280.00;;;;;;5094665;28;20357;-59
2022/02/12 10:14:10;;;;;;;;;;;282.00;1280.00;;;;;;5094531;28;19904;-59
2022/02/12 10:16:52;;;;;;;;;;;282.00;1280.00;;;;;;5094506;28;20381;-59
2022/02/12 10:19:18;;;;;;;;;;;282.00;1280.00;;;;;;5094381;28;19924;-59
2022/02/12 10:22:02;;;;;;;;;;;282.10;1254.40;;;;;;5094151;28;19911;-59
2022/02/12 10:24:44;;;;;;;;;;;282.20;1254.40;;;;;;5094250;28;19965;-59
2022/02/12 10:27:10;;;;;;;;;;;282.30;1254.40;;;;;;5094231;28;20250;-59
2022/02/12 10:29:37;;;;;;;;;;;282.40;1254.40;;;;;;5094257;28;19919;-59
2022/02/12 10:32:02;;;;;;;;;;;282.40;1254.40;;;;;;5093970;28;20406;-59
2022/02/12 10:34:43;;;;;;;;;;;282.40;1254.40;;;;;;5094066;28;19990;-59
2022/02/12 10:37:13;;;;;;;;;;;282.50;1228.80;;;;;;5094116;28;19904;-59
2022/02/12 10:39:56;;;;;;;;;;;307.20;1254.40;;;;;;5094128;28;19908;-58
2022/02/12 10:42:23;;;;;;;;;;;307.20;1254.40;;;;;;5094119;28;20013;-59
2022/02/12 10:44:51;;;;;;;;;;;307.30;1228.80;;;;;;5094451;28;20002;-59
2022/02/12 10:47:18;;;;;;;;;;;307.30;1203.20;;;;;;5098117;28;20346;-59
2022/02/12 10:49:45;;;;;;;;;;;307.20;1203.20;;;;;;5098038;28;19912;-64
2022/02/12 10:52:11;;;;;;;;;;;307.30;1203.20;;;;;;5097971;28;19991;-63
2022/02/12 10:54:40;;;;;;;;;;;307.20;1228.80;;;;;;5098069;28;19943;-62
2022/02/12 10:57:06;;;;;;;;;;;307.30;1203.20;;;;;;5097571;28;19908;-68
2022/02/12 10:59:36;;;;;;;;;;;307.30;1203.20;;;;;;5097966;28;19911;-62
2022/02/12 11:02:06;;;;;;;;;;;307.30;1203.20;;;;;;5098230;28;19927;-62
2022/02/12 11:04:41;;;;;;;;;;;307.40;1203.20;;;;;;5097097;28;20364;-62
2022/02/12 11:07:07;;;;;;;;;;;307.40;1177.60;;;;;;5097536;28;19951;-62
2022/02/12 11:09:36;;;;;;;;;;;307.40;1177.60;;;;;;5097500;28;19912;-62
2022/02/12 11:12:05;;;;;;;;;;;307.40;1177.60;;;;;;5097910;28;19904;-62
2022/02/12 11:14:37;;;;;;;;;;;307.40;1177.60;;;;;;5097771;28;19947;-62
2022/02/12 11:17:22;;;;;;;;;;;307.40;1177.60;;;;;;5097393;28;19919;-62
2022/02/12 11:19:48;;;;;;;;;;;307.50;1177.60;;;;;;5097540;28;20358;-61
2022/02/12 11:22:18;;;;;;;;;;;307.70;1433.60;;;;;;5097533;28;20269;-61
2022/02/12 11:24:47;;;;;;;;;;;307.80;1177.60;;;;;;5097326;28;19927;-62
2022/02/12 11:27:19;;;;;;;;;;;307.80;1152.00;;;;;;5097520;28;19927;-62
2022/02/12 11:29:49;;;;;;;;;;;307.80;1177.60;;;;;;5097378;28;19944;-62
2022/02/12 11:32:26;;;;;;;;;;;307.70;1152.00;;;;;;5096611;28;19923;-62
2022/02/12 11:34:58;;;;;;;;;;;307.80;1152.00;;;;;;5095300;28;19943;-63
2022/02/12 11:37:33;;;;;;;;;;;307.80;1126.40;;;;;;5097326;28;19934;-62
2022/02/12 11:40:11;;;;;;;;;;;307.80;1126.40;;;;;;5096895;28;19947;-62
2022/02/12 11:42:47;;;;;;;;;;;307.80;1152.00;;;;;;5097182;28;19911;-62
2022/02/12 11:45:25;;;;;;;;;;;307.90;1126.40;;;;;;5097161;28;19927;-62
2022/02/12 11:48:10;;;;;;;;;;;307.80;1126.40;;;;;;5097104;28;19950;-61
2022/02/12 11:50:46;;;;;;;;;;;307.80;1126.40;;;;;;5096856;28;19912;-61
2022/02/12 11:53:33;;;;;;;;;;;307.80;1126.40;;;;;;5096728;28;20357;-62
2022/02/12 11:56:17;;;;;;;;;;;307.80;1126.40;;;;;;5095947;28;19911;-62
2022/02/12 11:58:48;;;;;;;;;;;307.80;1100.80;;;;;;5096262;28;20235;-65
2022/02/12 12:01:29;;;;;;;;;;;307.90;1100.80;;;;;;5096730;28;19904;-74
2022/02/12 12:04:22;;;;;;;;;;;307.80;1100.80;;;;;;5096787;28;19949;-75
2022/02/12 12:07:13;;;;;;;;;;;307.80;1075.20;;;;;;5096719;28;19904;-68
2022/02/12 12:09:55;;;;;;;;;;;307.90;1100.80;;;;;;5096589;28;20380;-67
2022/02/12 12:12:24;;;;;;;;;;;307.90;1075.20;;;;;;5095084;28;20321;-70
2022/02/12 12:15:12;;;;;;;;;;;307.90;1100.80;;;;;;5096060;28;19908;-67
2022/02/12 12:17:41;;;;;;;;;;;307.90;1100.80;;;;;;5094401;28;19904;-68
2022/02/12 12:20:16;;;;;;;;;;;307.90;1100.80;;;;;;5096507;28;19904;-67
2022/02/12 12:22:44;;;;;;;;;;;307.90;1075.20;;;;;;5095156;28;20258;-69
2022/02/12 12:25:13;;;;;;;;;;;307.90;1075.20;;;;;;5096361;28;19908;-68
2022/02/12 12:27:42;;;;;;;;;;;307.90;1075.20;;;;;;5096065;28;20373;-68
2022/02/12 12:32:58;;;;;;;;;;;307.90;1075.20;;;;;;5095754;28;20301;-67
2022/02/12 12:35:24;;;;;;;;;;;307.80;1100.80;;;;;;5101426;28;19908;-68
2022/02/12 12:37:50;;;;;;;;;;;307.80;1075.20;;;;;;5087753;28;20360;-68
2022/02/12 12:40:17;;;;;;;;;;;307.80;1100.80;;;;;;5106049;28;20285;-67
2022/02/12 12:42:45;;;;;;;;;;;307.90;1100.80;;;;;;5104418;28;19911;-66
2022/02/12 12:45:11;;;;;;;;;;;307.90;1100.80;;;;;;5107948;28;19907;-67
2022/02/12 12:47:47;;;;;;;;;;;307.90;1075.20;;;;;;5106156;28;19921;-63
2022/02/12 12:50:13;;;;;;;;;;;308.00;1075.20;;;;;;5101145;28;20304;-70
2022/02/12 12:52:38;;;;;;;;;;;308.10;1075.20;;;;;;5108021;28;19914;-64
2022/02/12 12:55:09;;;;;;;;;;;332.80;1100.80;;;;;;5100757;28;19908;-67
2022/02/12 12:57:43;;;;;;;;;;;332.80;1100.80;;;;;;5095479;28;20025;-64
2022/02/12 13:00:10;;;;;;;;;;;332.90;1100.80;;;;;;5095366;28;20346;-66
2022/02/12 13:02:45;;;;;;;;;;;332.90;1075.20;;;;;;5097972;28;19908;-65
2022/02/12 13:05:11;;;;;;;;;;;332.90;1075.20;;;;;;5095328;28;19904;-64
2022/02/12 13:07:36;;;;;;;;;;;332.90;1075.20;;;;;;5095302;28;19911;-64
2022/02/12 13:10:03;;;;;;;;;;;332.90;1075.20;;;;;;5095259;28;19915;-65
2022/02/12 13:12:33;;;;;;;;;;;332.90;1075.20;;;;;;5103389;28;20126;-65
2022/02/12 13:15:06;;;;;;;;;;;332.90;1100.80;;;;;;5105941;28;20073;-64
2022/02/12 13:17:39;;;;;;;;;;;332.80;1100.80;;;;;;5100806;28;19912;-65
2022/02/12 13:20:07;;;;;;;;;;;332.90;1075.20;;;;;;5095149;28;19949;-66
2022/02/12 13:22:36;;;;;;;;;;;332.90;1075.20;;;;;;5102977;28;19955;-65
2022/02/12 13:25:10;;;;;;;;;;;332.90;1075.20;;;;;;5108182;28;20079;-67
2022/02/12 13:27:36;;;;;;;;;;;333.00;1075.20;;;;;;5101044;28;19911;-64
2022/02/12 13:30:02;;;;;;;;;;;333.00;1075.20;;;;;;5104786;28;19912;-69
2022/02/12 13:32:37;;;;;;;;;;;333.00;1075.20;;;;;;5105134;28;19922;-69
2022/02/12 13:35:11;;;;;;;;;;;333.00;1049.60;;;;;;5105556;28;19927;-67
2022/02/12 13:37:40;;;;;;;;;;;333.10;1049.60;;;;;;5107988;28;19911;-66
2022/02/12 13:40:10;;;;;;;;;;;333.10;1049.60;;;;;;5104781;28;19904;-70
2022/02/12 13:42:36;;;;;;;;;;;333.10;1049.60;;;;;;5094705;28;19918;-66
2022/02/12 13:45:03;;;;;;;;;;;333.00;1049.60;;;;;;5101554;28;20368;-65
2022/02/12 13:47:30;;;;;;;;;;;333.00;1075.20;;;;;;5106276;28;19908;-66
2022/02/12 13:49:59;;;;;;;;;;;332.90;1049.60;;;;;;5111685;28;20328;-70
2022/02/12 13:52:25;;;;;;;;;;;332.90;1049.60;;;;;;5095882;28;19908;-67
2022/02/12 13:55:04;;;;;;;;;;;332.90;1049.60;;;;;;5094372;28;19903;-65
2022/02/12 13:57:30;;;;;;;;;;;332.80;1049.60;;;;;;5100870;28;19929;-66
2022/02/12 13:59:57;;;;;;;;;;;332.80;1049.60;;;;;;5105641;28;19969;-68
2022/02/12 14:02:25;;;;;;;;;;;332.80;1049.60;;;;;;5105137;28;19916;-65